Terminal Aerodrome Forecast
Issued by NWS Green Bay, WI

Home | Current Version | Previous Version | Graphics & Text | Print | Product List | Glossary On
Versions: 1 2 3 4 5 6 7 8 9 10 11 12 13 14 15 16 17 18 19 20 21 22 23 24 25 26 27 28 29 30 31
000
FTUS43 KGRB 161700
TAFGRB
TAF
KGRB 161724Z 1618/1718 15004KT P6SM FEW060 SCT250
     FM162000 20005KT P6SM SCT100
     FM170000 20004KT P6SM BKN070
     FM170900 28003KT P6SM SCT050
     FM171200 34004KT P6SM BKN050
      TEMPO 1714/1718 SCT050=

USA.gov is the U.S. government's official web portal to all federal, state and local government web resources and services.